CYYL

Lynn Lake Airport

Lynn Lake, Manitoba, Canada
METAR CYYL 192200Z AUTO 14007KT 9SM BKN014 OVC080 M22/M24 A3005 RMK SLP231
Observed Flight Rules
Nov-19 @ 22:00 UTC (24 minutes ago) Marginal Visual Flight Rules
Wind Visibility Clouds
140° at 7 knots 9 miles
  • Broken at 1,400' AGL
  • Overcast at 8,000' AGL
Temperatures Readings
Current -22°C / -8°F
Dewpoint -24°C / -11°F
Humidity 84%
Altimeter 30.05" Hg
Pressure 1023.1 hPa
Elevation 357
METAR CYYL 192200Z AUTO 14007KT 9SM BKN014 OVC080 M22/M24 A3005 RMK SLP231
Observed Flight Rules
Nov-19 @ 22:00 UTC
(24 minutes ago)
MVFR
Wind Visibility
140° at 7 knots 9 miles
Clouds
  • Broken at 1,400' AGL
  • Overcast at 8,000' AGL
Temperature Dewpoint
-22°C / -8°F -24°C / -11°F
Humidity Altimeter Pressure
84% 30.05" Hg 1023.1 hPa